createdAt,value
2018-02-12T00:00:59.764Z,8.53
2018-02-12T00:03:28.316Z,8.73
2018-02-12T00:05:56.856Z,8.74
2018-02-12T00:08:26.600Z,8.53
2018-02-12T00:10:55.147Z,8.79
2018-02-12T00:13:24.457Z,8.67
2018-02-12T00:15:53.379Z,8.90
2018-02-12T00:18:21.924Z,8.63
2018-02-12T00:20:50.465Z,8.54
2018-02-12T00:23:19.234Z,8.82
2018-02-12T00:25:47.772Z,8.46
2018-02-12T00:28:16.325Z,8.62
2018-02-12T00:30:45.021Z,8.96
2018-02-12T00:33:14.340Z,8.85
2018-02-12T00:35:43.648Z,9.02
2018-02-12T00:38:12.473Z,8.84
2018-02-12T00:40:41.012Z,8.81
2018-02-12T00:43:10.323Z,8.97
2018-02-12T00:45:39.028Z,8.92
2018-02-12T00:48:07.572Z,8.87
2018-02-12T00:50:36.876Z,8.73
2018-02-12T00:53:06.234Z,9.00
2018-02-12T00:55:34.763Z,8.72
2018-02-12T00:58:04.074Z,8.84
2018-02-12T01:00:32.660Z,8.98
2018-02-12T01:03:01.196Z,9.06
2018-02-12T01:05:29.735Z,8.99
2018-02-12T01:07:58.469Z,8.96
2018-02-12T01:10:27.011Z,9.23
2018-02-12T01:12:55.615Z,9.20
2018-02-12T01:15:24.296Z,9.15
2018-02-12T01:17:52.836Z,9.24
2018-02-12T01:20:22.148Z,9.21
2018-02-12T01:22:50.968Z,9.16
2018-02-12T01:25:19.516Z,9.00
2018-02-12T01:27:48.059Z,8.79
2018-02-12T01:30:16.659Z,9.02
2018-02-12T01:32:45.971Z,8.95
2018-02-12T01:35:15.283Z,9.05
2018-02-12T01:37:43.883Z,9.09
2018-02-12T01:40:12.432Z,9.21
2018-02-12T01:42:41.731Z,9.24
2018-02-12T01:45:11.495Z,9.29
2018-02-12T01:47:40.040Z,9.06
2018-02-12T01:50:20.315Z,9.14
2018-02-12T01:52:48.864Z,8.92
2018-02-12T01:55:18.171Z,8.98
2018-02-12T01:57:47.525Z,8.98
2018-02-12T02:00:16.075Z,8.99
2018-02-12T02:02:44.611Z,9.14
2018-02-12T02:05:13.569Z,8.91
2018-02-12T02:07:42.172Z,9.08
2018-02-12T02:10:10.722Z,9.22
2018-02-12T02:12:39.420Z,9.02
2018-02-12T02:15:07.984Z,9.08
2018-02-12T02:17:36.528Z,9.26
2018-02-12T02:20:05.181Z,9.18
2018-02-12T02:22:33.719Z,8.97
2018-02-12T02:25:03.028Z,8.91
2018-02-12T02:27:31.612Z,8.69
2018-02-12T02:30:00.157Z,8.74
2018-02-12T02:32:28.716Z,8.60
2018-02-12T02:34:58.351Z,8.31
2018-02-12T02:37:26.899Z,8.61
2018-02-12T02:39:55.443Z,8.31
2018-02-12T02:42:24.276Z,8.49
2018-02-12T02:44:52.820Z,8.04
2018-02-12T02:47:21.368Z,7.90
2018-02-12T02:49:50.051Z,8.07
2018-02-12T02:52:18.619Z,8.12
2018-02-12T02:54:47.167Z,8.45
2018-02-12T02:57:15.864Z,8.47
2018-02-12T02:59:44.416Z,8.20
2018-02-12T03:02:13.724Z,8.30
2018-02-12T03:04:42.420Z,8.21
2018-02-12T03:07:10.975Z,8.32
2018-02-12T03:09:40.288Z,8.12
2018-02-12T03:12:09.640Z,8.23
2018-02-12T03:14:38.188Z,8.34
2018-02-12T03:17:06.735Z,8.44
2018-02-12T03:19:36.199Z,8.54
2018-02-12T03:22:04.740Z,8.45
2018-02-12T03:24:34.048Z,8.13
2018-02-12T03:27:02.871Z,8.15
2018-02-12T03:29:31.416Z,8.00
2018-02-12T03:31:59.967Z,8.20
2018-02-12T03:34:28.928Z,8.04
2018-02-12T03:36:57.475Z,7.98
2018-02-12T03:39:26.041Z,8.27
2018-02-12T03:41:55.500Z,8.33
2018-02-12T03:44:24.095Z,8.19
2018-02-12T03:46:52.669Z,8.04
2018-02-12T03:49:21.363Z,8.19
2018-02-12T03:51:50.719Z,8.27
2018-02-12T03:54:19.283Z,8.41
2018-02-12T03:56:48.643Z,8.37
2018-02-12T03:59:17.188Z,8.24
2018-02-12T04:01:45.733Z,8.10
2018-02-12T04:04:14.427Z,8.03
2018-02-12T04:06:42.975Z,8.30
2018-02-12T04:09:11.521Z,8.29
2018-02-12T04:11:40.207Z,7.92
2018-02-12T04:14:08.755Z,8.03
2018-02-12T04:16:37.300Z,8.06
2018-02-12T04:19:06.011Z,8.04
2018-02-12T04:21:34.560Z,8.25
2018-02-12T04:24:03.110Z,8.31
2018-02-12T04:26:32.464Z,8.22
2018-02-12T04:29:01.008Z,8.22
2018-02-12T04:31:29.556Z,8.39
2018-02-12T04:33:58.148Z,8.29
2018-02-12T04:36:27.464Z,8.14
2018-02-12T04:38:57.067Z,8.16
2018-02-12T04:41:26.578Z,8.24
2018-02-12T04:43:55.885Z,8.28
2018-02-12T04:46:34.512Z,8.31
2018-02-12T04:49:03.052Z,8.18
2018-02-12T04:51:31.607Z,8.31
2018-02-12T04:54:00.308Z,8.40
2018-02-12T04:56:28.860Z,8.47
2018-02-12T04:58:57.407Z,8.50
2018-02-12T05:01:26.866Z,8.56
2018-02-12T05:03:55.411Z,8.75
2018-02-12T05:06:23.955Z,8.73
2018-02-12T05:08:52.549Z,8.80
2018-02-12T05:11:21.868Z,8.76
2018-02-12T05:13:51.166Z,8.95
2018-02-12T05:16:20.916Z,8.93
2018-02-12T05:18:49.463Z,8.79
2018-02-12T05:21:18.032Z,9.07
2018-02-12T05:23:47.595Z,8.93
2018-02-12T05:26:16.143Z,9.12
2018-02-12T05:28:44.683Z,9.05
2018-02-12T05:31:14.135Z,9.12
2018-02-12T05:33:42.687Z,9.15
2018-02-12T05:36:11.280Z,9.34
2018-02-12T05:38:39.870Z,9.46
2018-02-12T05:41:08.407Z,9.29
2018-02-12T05:43:37.721Z,9.24
2018-02-12T05:46:07.481Z,9.08
2018-02-12T05:48:36.038Z,9.05
2018-02-12T05:51:04.590Z,9.15
2018-02-12T05:53:34.903Z,8.88
2018-02-12T05:56:03.454Z,8.95
2018-02-12T05:58:32.004Z,8.89
2018-02-12T06:01:00.596Z,9.05
2018-02-12T06:03:29.143Z,9.28
2018-02-12T06:05:58.456Z,9.29
2018-02-12T06:08:27.912Z,9.14
2018-02-12T06:10:56.451Z,9.36
2018-02-12T06:13:25.000Z,9.26
2018-02-12T06:15:53.751Z,9.26
2018-02-12T06:18:22.295Z,9.23
2018-02-12T06:20:50.910Z,8.78
2018-02-12T06:23:19.522Z,9.06
2018-02-12T06:25:48.057Z,8.89
2018-02-12T06:28:17.368Z,8.94
2018-02-12T06:30:45.977Z,8.95
2018-02-12T06:33:14.532Z,8.91
2018-02-12T06:35:43.088Z,8.96
2018-02-12T06:38:11.924Z,8.76
2018-02-12T06:40:41.241Z,8.63
2018-02-12T06:43:09.784Z,8.77
2018-02-12T06:45:38.524Z,8.65
2018-02-12T06:48:07.084Z,8.68
2018-02-12T06:50:35.632Z,8.55
2018-02-12T06:53:04.374Z,8.91
2018-02-12T06:55:32.920Z,8.71
2018-02-12T06:58:01.472Z,8.94
2018-02-12T07:00:30.304Z,8.75
2018-02-12T07:02:58.857Z,8.80
2018-02-12T07:05:27.404Z,8.97
2018-02-12T07:07:56.106Z,9.09
2018-02-12T07:10:25.419Z,8.91
2018-02-12T07:12:53.961Z,8.73
2018-02-12T07:15:22.832Z,8.91
2018-02-12T07:17:51.383Z,8.88
2018-02-12T07:20:19.924Z,8.97
2018-02-12T07:22:48.620Z,8.77
2018-02-12T07:25:17.951Z,8.98
2018-02-12T07:27:46.501Z,8.80
2018-02-12T07:30:15.976Z,8.74
2018-02-12T07:32:44.541Z,9.03
2018-02-12T07:35:13.093Z,8.84
2018-02-12T07:37:41.829Z,9.12
2018-02-12T07:40:10.379Z,9.29
2018-02-12T07:42:38.932Z,9.18
2018-02-12T07:45:08.592Z,9.26
2018-02-12T07:47:37.137Z,9.28
2018-02-12T07:50:05.718Z,9.16
2018-02-12T07:52:35.219Z,9.06
2018-02-12T07:55:04.600Z,9.25
2018-02-12T07:57:33.924Z,9.32
2018-02-12T08:00:03.316Z,9.36
2018-02-12T08:02:32.634Z,9.58
2018-02-12T08:05:01.184Z,9.74
2018-02-12T08:07:29.878Z,9.57
2018-02-12T08:09:59.196Z,9.58
2018-02-12T08:12:27.751Z,9.74
2018-02-12T08:14:56.360Z,9.43
2018-02-12T08:17:24.911Z,9.51
2018-02-12T08:19:53.476Z,9.82
2018-02-12T08:22:22.361Z,9.66
2018-02-12T08:24:50.913Z,9.69
2018-02-12T08:27:19.464Z,9.91
2018-02-12T08:29:48.940Z,10.18
2018-02-12T08:32:18.298Z,9.67
2018-02-12T08:34:46.852Z,9.86
2018-02-12T08:37:15.553Z,9.80
2018-02-12T08:39:44.864Z,9.82
2018-02-12T08:42:14.173Z,9.88
2018-02-12T08:44:42.787Z,9.84
2018-02-12T08:47:11.336Z,9.57
2018-02-12T08:49:39.892Z,9.54
2018-02-12T08:52:08.588Z,9.58
2018-02-12T08:54:37.952Z,9.48
2018-02-12T08:57:06.504Z,9.66
2018-02-12T08:59:39.008Z,9.80
2018-02-12T09:02:07.577Z,9.77
2018-02-12T09:04:36.140Z,10.00
2018-02-12T09:07:04.758Z,9.64
2018-02-12T09:09:34.075Z,9.70
2018-02-12T09:12:02.657Z,9.77
2018-02-12T09:14:31.433Z,9.36
2018-02-12T09:16:59.979Z,9.87
2018-02-12T09:19:28.524Z,9.78
2018-02-12T09:21:57.892Z,9.79
2018-02-12T09:24:26.439Z,9.48
2018-02-12T09:26:54.979Z,9.62
2018-02-12T09:29:23.952Z,9.57
2018-02-12T09:31:52.499Z,9.34
2018-02-12T09:34:21.044Z,9.38
2018-02-12T09:36:50.418Z,9.71
2018-02-12T09:39:18.964Z,9.88
2018-02-12T09:41:47.509Z,9.30
2018-02-12T09:44:16.116Z,9.21
2018-02-12T09:46:45.417Z,9.53
2018-02-12T09:49:14.729Z,9.78
2018-02-12T09:51:43.663Z,9.90
2018-02-12T09:54:12.221Z,9.79
2018-02-12T09:56:40.792Z,9.95
2018-02-12T09:59:09.404Z,9.60
2018-02-12T10:01:37.955Z,9.76
2018-02-12T10:04:07.288Z,9.87
2018-02-12T10:06:35.984Z,9.78
2018-02-12T10:09:04.608Z,9.60
2018-02-12T10:11:33.919Z,9.87
2018-02-12T10:14:03.372Z,9.59
2018-02-12T10:16:31.924Z,9.60
2018-02-12T10:19:00.467Z,9.26
2018-02-12T10:21:29.935Z,9.53
2018-02-12T10:23:58.484Z,9.55
2018-02-12T10:26:27.040Z,9.67
2018-02-12T10:28:56.417Z,9.99
2018-02-12T10:31:24.991Z,10.27
2018-02-12T10:33:53.553Z,10.38
2018-02-12T10:36:22.248Z,10.56
2018-02-12T10:38:50.800Z,10.20
2018-02-12T10:41:19.355Z,10.09
2018-02-12T10:43:47.951Z,10.62
2018-02-12T10:46:17.264Z,10.45
2018-02-12T10:48:45.812Z,10.76
2018-02-12T10:51:14.517Z,11.49
2018-02-12T10:53:43.827Z,11.59
2018-02-12T10:56:13.140Z,11.79
2018-02-12T10:58:41.824Z,11.08
2018-02-12T11:01:10.373Z,11.22
2018-02-12T11:03:38.921Z,10.76
2018-02-12T11:06:07.617Z,11.59
2018-02-12T11:08:36.160Z,11.52
2018-02-12T11:11:04.708Z,12.18
2018-02-12T11:13:34.184Z,12.17
2018-02-12T11:16:02.735Z,12.28
2018-02-12T11:18:31.289Z,12.72
2018-02-12T11:21:00.756Z,12.35
2018-02-12T11:23:29.305Z,12.23
2018-02-12T11:25:58.896Z,12.39
2018-02-12T11:28:28.640Z,11.56
2018-02-12T11:30:57.184Z,11.57
2018-02-12T11:33:26.480Z,11.54
2018-02-12T11:35:55.839Z,12.05
2018-02-12T11:38:24.388Z,12.16
2018-02-12T11:40:52.936Z,12.43
2018-02-12T11:43:22.500Z,12.45
2018-02-12T11:45:51.048Z,12.46
2018-02-12T11:48:20.356Z,12.64
2018-02-12T11:50:49.173Z,12.47
2018-02-12T11:53:17.716Z,12.56
2018-02-12T11:55:47.024Z,13.07
2018-02-12T11:58:15.725Z,12.71
2018-02-12T12:00:44.272Z,12.78
2018-02-12T12:03:13.596Z,12.91
2018-02-12T12:05:42.192Z,12.74
2018-02-12T12:08:10.744Z,12.59
2018-02-12T12:10:40.054Z,12.75
2018-02-12T12:13:09.515Z,12.95
2018-02-12T12:15:38.064Z,12.65
2018-02-12T12:18:06.620Z,12.50
2018-02-12T12:20:36.076Z,12.41
2018-02-12T12:23:04.629Z,12.39
2018-02-12T12:25:33.177Z,12.57
2018-02-12T12:28:02.545Z,12.65
2018-02-12T12:30:31.871Z,12.38
2018-02-12T12:33:01.188Z,12.08
2018-02-12T12:35:30.652Z,12.52
2018-02-12T12:37:59.196Z,12.76
2018-02-12T12:40:27.748Z,13.37
2018-02-12T12:42:57.211Z,14.06
2018-02-12T12:45:25.755Z,13.10
2018-02-12T12:47:54.300Z,13.52
2018-02-12T12:50:23.060Z,14.05
2018-02-12T12:52:51.604Z,14.97
2018-02-12T12:55:21.832Z,15.83
2018-02-12T12:57:50.558Z,15.67
2018-02-12T13:00:19.168Z,15.14
2018-02-12T13:02:47.736Z,15.36
2018-02-12T13:05:16.492Z,15.18
2018-02-12T13:07:45.032Z,15.00
2018-02-12T13:10:13.578Z,14.68
2018-02-12T13:12:42.276Z,14.03
2018-02-12T13:15:11.575Z,14.05
2018-02-12T13:17:40.120Z,14.55
2018-02-12T13:20:09.145Z,15.51
2018-02-12T13:22:38.513Z,15.57
2018-02-12T13:25:07.057Z,15.21
2018-02-12T13:27:35.905Z,14.76
2018-02-12T13:30:04.471Z,14.07
2018-02-12T13:32:33.014Z,14.64
2018-02-12T13:35:03.119Z,14.49
2018-02-12T13:37:31.680Z,14.49
2018-02-12T13:40:00.219Z,13.67
2018-02-12T13:42:30.553Z,13.26
2018-02-12T13:44:59.104Z,12.12
2018-02-12T13:47:28.425Z,12.56
2018-02-12T13:49:57.792Z,12.56
2018-02-12T13:52:26.354Z,12.29
2018-02-12T13:54:54.892Z,12.48
2018-02-12T13:57:24.543Z,12.42
2018-02-12T13:59:53.097Z,12.29
2018-02-12T14:02:21.640Z,12.40
2018-02-12T14:04:51.015Z,12.09
2018-02-12T14:07:19.564Z,11.75
2018-02-12T14:09:48.111Z,11.39
2018-02-12T14:12:16.700Z,11.28
2018-02-12T14:14:45.253Z,11.20
2018-02-12T14:17:14.652Z,11.24
2018-02-12T14:19:44.024Z,11.17
2018-02-12T14:22:12.572Z,11.16
2018-02-12T14:24:41.880Z,11.30
2018-02-12T14:27:11.242Z,11.41
2018-02-12T14:29:39.788Z,11.25
2018-02-12T14:32:08.336Z,11.26
2018-02-12T14:34:37.035Z,11.34
2018-02-12T14:37:06.348Z,11.32
2018-02-12T14:39:34.893Z,11.54
2018-02-12T14:42:03.654Z,11.49
2018-02-12T14:44:32.196Z,11.60
2018-02-12T14:47:01.504Z,11.20
2018-02-12T14:49:30.119Z,11.15
2018-02-12T14:51:58.663Z,11.09
2018-02-12T14:54:27.228Z,11.13
2018-02-12T14:56:56.880Z,10.91
2018-02-12T14:59:25.424Z,10.83
2018-02-12T15:01:54.744Z,11.01
2018-02-12T15:04:23.445Z,11.16
2018-02-12T15:06:51.992Z,11.07
2018-02-12T15:09:21.304Z,10.87
2018-02-12T15:11:50.841Z,10.96
2018-02-12T15:14:20.159Z,11.19
2018-02-12T15:16:48.706Z,11.05
2018-02-12T15:19:17.412Z,11.05
2018-02-12T15:21:45.960Z,10.93
2018-02-12T15:24:15.271Z,10.86
2018-02-12T15:26:44.091Z,10.93
2018-02-12T15:29:12.636Z,10.63
2018-02-12T15:31:41.240Z,10.72
2018-02-12T15:34:10.154Z,10.90
2018-02-12T15:36:38.697Z,10.61
2018-02-12T15:39:07.244Z,10.67
2018-02-12T15:41:36.108Z,10.31
2018-02-12T15:44:04.653Z,10.24
2018-02-12T15:46:33.201Z,10.18
2018-02-12T15:49:02.017Z,10.15
2018-02-12T15:51:31.332Z,10.12
2018-02-12T15:53:59.891Z,10.23
2018-02-12T15:56:29.262Z,10.31
2018-02-12T15:58:57.812Z,10.22
2018-02-12T16:01:26.363Z,10.27
2018-02-12T16:03:55.720Z,10.27
2018-02-12T16:06:24.264Z,10.26
2018-02-12T16:08:52.811Z,10.07
2018-02-12T16:11:21.500Z,9.72
2018-02-12T16:13:51.564Z,9.75
2018-02-12T16:16:20.104Z,9.58
2018-02-12T16:18:49.776Z,9.42
2018-02-12T16:21:18.316Z,9.38
2018-02-12T16:23:47.620Z,9.25
2018-02-12T16:26:16.368Z,9.20
2018-02-12T16:28:44.916Z,9.18
2018-02-12T16:31:13.460Z,9.08
2018-02-12T16:33:43.008Z,8.89
2018-02-12T16:36:11.548Z,8.74
2018-02-12T16:38:40.863Z,8.81
2018-02-12T16:41:09.681Z,8.74
2018-02-12T16:43:38.225Z,8.83
2018-02-12T16:46:07.536Z,8.80
2018-02-12T16:48:36.221Z,8.85
2018-02-12T16:51:05.528Z,9.11
2018-02-12T16:53:34.076Z,9.31
2018-02-12T16:56:05.317Z,9.39
2018-02-12T16:58:33.865Z,9.55
2018-02-12T17:01:02.416Z,9.73
2018-02-12T17:03:31.341Z,9.76
2018-02-12T17:05:59.889Z,9.90
2018-02-12T17:08:28.503Z,9.80
2018-02-12T17:10:57.284Z,9.88
2018-02-12T17:13:25.828Z,10.02
2018-02-12T17:15:55.147Z,10.07
2018-02-12T17:18:23.741Z,10.20
2018-02-12T17:20:52.288Z,10.20
2018-02-12T17:23:20.840Z,10.17
2018-02-12T17:25:49.436Z,10.09
2018-02-12T17:28:18.743Z,9.78
2018-02-12T17:30:48.052Z,9.74
2018-02-12T17:33:17.594Z,9.70
2018-02-12T17:35:46.142Z,9.82
2018-02-12T17:38:14.684Z,9.76
2018-02-12T17:40:43.268Z,9.63
2018-02-12T17:43:11.824Z,9.59
2018-02-12T17:45:40.368Z,9.31
2018-02-12T17:48:08.969Z,9.16
2018-02-12T17:50:37.518Z,9.29
2018-02-12T17:53:06.076Z,9.17
2018-02-12T17:55:35.840Z,8.97
2018-02-12T17:58:04.392Z,8.81
2018-02-12T18:00:32.980Z,8.75
2018-02-12T18:03:01.692Z,8.69
2018-02-12T18:05:30.242Z,8.63
2018-02-12T18:07:58.789Z,8.58
2018-02-12T18:10:27.396Z,8.49
2018-02-12T18:12:56.716Z,8.37
2018-02-12T18:15:25.268Z,8.42
2018-02-12T18:17:54.668Z,8.36
2018-02-12T18:20:23.984Z,8.20
2018-02-12T18:22:53.291Z,7.96
2018-02-12T18:25:21.893Z,8.02
2018-02-12T18:27:50.444Z,7.81
2018-02-12T18:30:19.764Z,7.84
2018-02-12T18:32:48.382Z,7.64
2018-02-12T18:35:17.860Z,7.60
2018-02-12T18:37:46.404Z,7.68
2018-02-12T18:40:15.872Z,7.66
2018-02-12T18:42:44.416Z,7.57
2018-02-12T18:45:12.960Z,7.56
2018-02-12T18:47:41.672Z,7.46
2018-02-12T18:50:10.980Z,7.43
2018-02-12T18:52:40.287Z,7.35
2018-02-12T18:55:08.880Z,7.35
2018-02-12T18:57:37.716Z,7.40
2018-02-12T19:00:06.324Z,7.39
2018-02-12T19:02:35.029Z,7.33
2018-02-12T19:05:03.597Z,7.47
2018-02-12T19:07:32.140Z,7.45
2018-02-12T19:10:00.736Z,7.31
2018-02-12T19:12:29.292Z,7.27
2018-02-12T19:14:57.837Z,7.24
2018-02-12T19:17:26.541Z,7.25
2018-02-12T19:19:55.852Z,7.31
2018-02-12T19:22:25.216Z,7.13
2018-02-12T19:24:54.192Z,7.15
2018-02-12T19:27:22.733Z,7.11
2018-02-12T19:29:51.289Z,7.03
2018-02-12T19:32:19.986Z,6.98
2018-02-12T19:34:49.287Z,7.00
2018-02-12T19:37:18.604Z,6.97
2018-02-12T19:39:48.052Z,7.05
2018-02-12T19:42:16.600Z,7.29
2018-02-12T19:44:45.148Z,7.19
2018-02-12T19:47:13.748Z,7.21
2018-02-12T19:49:42.292Z,7.14
2018-02-12T19:52:11.606Z,7.35
2018-02-12T19:54:40.972Z,7.34
2018-02-12T19:57:11.023Z,7.29
2018-02-12T19:59:40.788Z,7.35
2018-02-12T20:02:09.333Z,7.46
2018-02-12T20:04:37.871Z,7.47
2018-02-12T20:07:06.648Z,7.43
2018-02-12T20:09:35.192Z,7.28
2018-02-12T20:12:03.736Z,7.42
2018-02-12T20:14:32.691Z,7.47
2018-02-12T20:17:01.232Z,7.47
2018-02-12T20:19:29.788Z,7.33
2018-02-12T20:21:59.296Z,7.31
2018-02-12T20:24:27.849Z,7.27
2018-02-12T20:26:56.402Z,7.33
2018-02-12T20:29:25.223Z,7.32
2018-02-12T20:31:53.773Z,7.45
2018-02-12T20:34:22.323Z,7.49
2018-02-12T20:36:51.147Z,7.56
2018-02-12T20:39:19.692Z,7.62
2018-02-12T20:41:49.000Z,7.78
2018-02-12T20:51:03.004Z,8.30
2018-02-12T20:53:31.549Z,8.33
2018-02-12T20:56:00.860Z,8.34
2018-02-12T20:58:30.327Z,8.41
2018-02-12T21:00:58.876Z,8.48
2018-02-12T21:03:27.431Z,8.63
2018-02-12T21:05:56.256Z,8.72
2018-02-12T21:08:24.796Z,8.47
2018-02-12T21:10:54.103Z,8.45
2018-02-12T21:13:22.855Z,8.59
2018-02-12T21:15:51.418Z,8.65
2018-02-12T21:18:19.965Z,8.66
2018-02-12T21:20:48.780Z,8.71
2018-02-12T21:23:17.345Z,8.50
2018-02-12T21:25:45.889Z,8.60
2018-02-12T21:28:14.492Z,8.80
2018-02-12T21:30:43.044Z,8.84
2018-02-12T21:33:12.352Z,8.92
2018-02-12T21:35:40.952Z,8.66
2018-02-12T21:38:09.478Z,8.73
2018-02-12T21:40:38.036Z,8.52
2018-02-12T21:43:06.625Z,8.44
2018-02-12T21:45:35.171Z,8.50
2018-02-12T21:48:03.725Z,8.48
2018-02-12T21:50:32.315Z,8.35
2018-02-12T21:53:01.624Z,8.41
2018-02-12T21:55:30.931Z,8.29
2018-02-12T21:57:59.857Z,8.19
2018-02-12T22:00:28.403Z,8.25
2018-02-12T22:02:57.706Z,8.10
2018-02-12T22:05:27.443Z,7.98
2018-02-12T22:07:55.989Z,7.71
2018-02-12T22:10:25.295Z,7.71
2018-02-12T22:12:54.649Z,7.64
2018-02-12T22:15:23.192Z,7.57
2018-02-12T22:17:51.738Z,7.48
2018-02-12T22:20:20.472Z,7.17
2018-02-12T22:22:49.016Z,7.23
2018-02-12T22:25:17.557Z,7.05
2018-02-12T22:27:46.447Z,6.88
2018-02-12T22:30:14.988Z,6.72
2018-02-12T22:32:44.293Z,6.43
2018-02-12T22:35:12.888Z,6.40
2018-02-12T22:37:41.428Z,6.48
2018-02-12T22:40:09.984Z,6.43
2018-02-12T22:42:38.964Z,6.36
2018-02-12T22:45:07.504Z,6.38
2018-02-12T22:47:36.815Z,6.27
2018-02-12T22:50:06.171Z,6.16
2018-02-12T22:52:34.712Z,6.20
2018-02-12T22:55:03.252Z,6.22
2018-02-12T22:57:31.849Z,6.27
2018-02-12T23:00:01.164Z,6.39
2018-02-12T23:02:30.473Z,6.42
2018-02-12T23:04:59.288Z,6.52
2018-02-12T23:07:27.829Z,6.63
2018-02-12T23:09:57.140Z,6.62
2018-02-12T23:12:26.499Z,6.19
2018-02-12T23:14:55.040Z,5.90
2018-02-12T23:17:23.608Z,6.30
2018-02-12T23:19:52.536Z,6.61
2018-02-12T23:22:21.074Z,6.67
2018-02-12T23:24:50.379Z,6.95
2018-02-12T23:27:19.060Z,6.82
2018-02-12T23:29:48.368Z,6.47
2018-02-12T23:32:16.908Z,6.65
2018-02-12T23:34:45.601Z,7.10
2018-02-12T23:37:14.147Z,7.15
2018-02-12T23:39:42.688Z,6.95
2018-02-12T23:42:12.452Z,6.85
2018-02-12T23:44:40.991Z,7.24
2018-02-12T23:47:10.303Z,7.50
2018-02-12T23:49:38.889Z,7.58
2018-02-12T23:52:07.433Z,7.66
2018-02-12T23:54:35.980Z,7.47
2018-02-12T23:57:04.759Z,7.84
2018-02-12T23:59:33.291Z,7.92
